createdAt,value
2019-03-15T00:01:40.964Z,12.60
2019-03-15T00:04:09.627Z,9.03
2019-03-15T00:06:38.313Z,14.73
2019-03-15T00:09:09.072Z,15.93
2019-03-15T00:11:38.027Z,16.73
2019-03-15T00:14:06.639Z,14.23
2019-03-15T00:16:35.192Z,13.27
2019-03-15T00:19:03.911Z,15.03
2019-03-15T00:21:32.575Z,15.13
2019-03-15T00:24:01.118Z,13.60
2019-03-15T00:26:29.761Z,14.57
2019-03-15T00:28:58.351Z,14.20
2019-03-15T00:31:26.907Z,16.80
2019-03-15T00:33:55.581Z,19.17
2019-03-15T00:36:24.114Z,21.60
2019-03-15T00:38:53.900Z,18.33
2019-03-15T00:41:22.871Z,19.07
2019-03-15T00:43:51.407Z,17.33
2019-03-15T00:46:19.876Z,17.60
2019-03-15T00:48:48.388Z,18.13
2019-03-15T00:51:16.851Z,15.50
2019-03-15T00:53:45.327Z,19.30
2019-03-15T00:56:14.053Z,20.37
2019-03-15T00:58:42.780Z,15.93
2019-03-15T01:01:11.533Z,17.63
2019-03-15T01:03:40.160Z,23.93
2019-03-15T01:06:08.768Z,21.87
2019-03-15T01:08:37.276Z,23.67
2019-03-15T01:11:05.839Z,15.57
2019-03-15T01:13:34.440Z,21.33
2019-03-15T01:16:02.979Z,19.63
2019-03-15T01:18:31.524Z,19.73
2019-03-15T01:21:00.040Z,22.00
2019-03-15T01:23:28.659Z,20.00
2019-03-15T01:25:57.132Z,22.73
2019-03-15T01:28:25.636Z,21.60
2019-03-15T01:30:56.444Z,24.93
2019-03-15T01:33:24.974Z,21.77
2019-03-15T01:35:53.446Z,26.33
2019-03-15T01:38:21.906Z,24.50
2019-03-15T01:40:50.391Z,22.70
2019-03-15T01:43:19.029Z,21.77
2019-03-15T01:45:47.645Z,28.20
2019-03-15T01:48:17.774Z,24.97
2019-03-15T01:50:46.600Z,24.77
2019-03-15T01:53:15.099Z,18.97
2019-03-15T01:55:43.682Z,31.00
2019-03-15T01:58:12.148Z,31.07
2019-03-15T02:00:40.896Z,25.63
2019-03-15T02:03:09.387Z,21.03
2019-03-15T02:05:37.895Z,22.07
2019-03-15T02:08:06.377Z,26.37
2019-03-15T02:10:34.963Z,34.37
2019-03-15T02:13:03.597Z,22.80
2019-03-15T02:15:32.041Z,24.97
2019-03-15T02:18:00.614Z,30.83
2019-03-15T02:20:29.289Z,29.40
2019-03-15T02:22:58.370Z,25.37
2019-03-15T02:25:27.460Z,28.10
2019-03-15T02:27:56.165Z,25.93
2019-03-15T02:30:24.699Z,25.50
2019-03-15T02:32:53.206Z,24.80
2019-03-15T02:35:21.819Z,21.27
2019-03-15T02:37:50.297Z,21.47
2019-03-15T02:40:18.771Z,28.57
2019-03-15T02:42:47.368Z,24.10
2019-03-15T02:45:15.832Z,27.20
2019-03-15T02:47:44.328Z,20.17
2019-03-15T02:50:12.962Z,23.17
2019-03-15T02:52:42.293Z,17.57
2019-03-15T02:55:11.164Z,19.53
2019-03-15T02:57:39.765Z,23.80
2019-03-15T03:00:09.680Z,16.03
2019-03-15T03:02:38.188Z,25.13
2019-03-15T03:05:09.326Z,18.37
2019-03-15T03:07:37.811Z,14.00
2019-03-15T03:10:08.272Z,20.30
2019-03-15T03:12:36.770Z,16.03
2019-03-15T03:15:06.577Z,22.30
2019-03-15T03:17:35.060Z,23.37
2019-03-15T03:20:05.267Z,15.87
2019-03-15T03:22:33.765Z,12.23
2019-03-15T03:25:02.304Z,16.53
2019-03-15T03:27:30.787Z,21.03
2019-03-15T03:29:59.321Z,19.40
2019-03-15T03:32:27.826Z,19.73
2019-03-15T03:34:56.307Z,25.87
2019-03-15T03:37:24.832Z,22.60
2019-03-15T03:39:53.378Z,23.73
2019-03-15T03:42:21.908Z,19.77
2019-03-15T03:44:50.428Z,18.33
2019-03-15T03:47:18.903Z,17.73
2019-03-15T03:49:47.371Z,29.10
2019-03-15T03:52:15.884Z,22.13
2019-03-15T03:54:44.368Z,20.77
2019-03-15T03:57:12.830Z,25.63
2019-03-15T03:59:41.336Z,18.53
2019-03-15T04:02:09.791Z,18.90
2019-03-15T04:04:38.361Z,23.73
2019-03-15T04:07:06.841Z,22.93
2019-03-15T04:09:35.311Z,26.60
2019-03-15T04:12:03.908Z,25.57
2019-03-15T04:14:32.390Z,21.60
2019-03-15T04:17:00.868Z,21.30
2019-03-15T04:19:29.381Z,23.40
2019-03-15T04:21:57.847Z,23.07
2019-03-15T04:24:26.316Z,17.03
2019-03-15T04:26:54.839Z,31.97
2019-03-15T04:29:23.319Z,24.00
2019-03-15T04:31:51.807Z,22.40
2019-03-15T04:34:20.303Z,22.07
2019-03-15T04:36:48.821Z,18.53
2019-03-15T04:39:17.293Z,16.83
2019-03-15T04:41:46.121Z,16.63
2019-03-15T04:44:14.785Z,18.07
2019-03-15T04:46:43.259Z,12.53
2019-03-15T04:49:11.772Z,12.80
2019-03-15T04:51:40.247Z,17.97
2019-03-15T04:54:08.715Z,13.00
2019-03-15T04:56:37.236Z,11.33
2019-03-15T04:59:05.743Z,12.20
2019-03-15T05:01:34.241Z,12.53
2019-03-15T05:04:02.767Z,9.03
2019-03-15T05:06:31.293Z,11.17
2019-03-15T05:08:59.766Z,13.10
2019-03-15T05:11:28.269Z,9.17
2019-03-15T05:13:58.816Z,14.50
2019-03-15T05:16:26.883Z,8.67
2019-03-15T05:18:55.348Z,10.67
2019-03-15T05:21:23.913Z,11.70
2019-03-15T05:23:52.515Z,10.73
2019-03-15T05:26:21.080Z,7.67
2019-03-15T05:28:49.579Z,7.77
2019-03-15T05:31:18.131Z,9.97
2019-03-15T05:33:46.591Z,10.80
2019-03-15T05:36:15.059Z,9.77
2019-03-15T05:38:43.619Z,8.43
2019-03-15T05:41:12.151Z,11.03
2019-03-15T05:43:40.615Z,15.97
2019-03-15T05:46:09.083Z,10.43
2019-03-15T05:48:37.614Z,10.43
2019-03-15T05:51:06.145Z,17.17
2019-03-15T05:53:34.631Z,7.87
2019-03-15T05:56:03.218Z,8.43
2019-03-15T05:58:31.686Z,10.60
2019-03-15T06:01:00.204Z,9.60
2019-03-15T06:03:28.688Z,11.40
2019-03-15T06:05:57.155Z,9.70
2019-03-15T06:08:27.596Z,14.77
2019-03-15T06:10:55.803Z,9.50
2019-03-15T06:13:24.275Z,11.63
2019-03-15T06:15:55.790Z,16.37
2019-03-15T06:18:24.254Z,16.33
2019-03-15T06:20:52.739Z,12.87
2019-03-15T06:23:21.309Z,14.23
2019-03-15T06:25:49.801Z,11.83
2019-03-15T06:28:18.395Z,12.90
2019-03-15T06:30:46.967Z,10.63
2019-03-15T06:33:15.455Z,11.20
2019-03-15T06:35:43.947Z,8.20
2019-03-15T06:38:12.426Z,13.83
2019-03-15T06:40:40.935Z,12.70
2019-03-15T06:43:09.454Z,14.40
2019-03-15T06:45:41.874Z,14.73
2019-03-15T06:48:11.764Z,16.93
2019-03-15T06:50:40.449Z,17.87
2019-03-15T06:53:09.039Z,23.80
2019-03-15T06:55:37.484Z,18.47
2019-03-15T06:58:05.983Z,26.17
2019-03-15T07:00:34.529Z,18.63
2019-03-15T07:03:02.999Z,25.27
2019-03-15T07:05:31.520Z,32.10
2019-03-15T07:08:00.936Z,26.53
2019-03-15T07:10:29.467Z,26.63
2019-03-15T07:12:58.012Z,29.23
2019-03-15T07:15:26.545Z,29.97
2019-03-15T07:17:55.161Z,27.93
2019-03-15T07:20:23.740Z,29.13
2019-03-15T07:22:52.427Z,29.50
2019-03-15T07:25:20.948Z,26.63
2019-03-15T07:27:49.518Z,24.80
2019-03-15T07:30:18.108Z,34.87
2019-03-15T07:32:46.698Z,31.93
2019-03-15T07:35:15.223Z,38.60
2019-03-15T07:37:45.665Z,39.40
2019-03-15T07:40:13.838Z,37.73
2019-03-15T07:42:42.351Z,33.43
2019-03-15T07:45:12.470Z,31.77
2019-03-15T07:47:41.320Z,42.40
2019-03-15T07:50:14.248Z,25.77
2019-03-15T07:52:42.157Z,34.47
2019-03-15T07:55:11.198Z,30.60
2019-03-15T07:57:40.760Z,32.27
2019-03-15T08:00:17.302Z,33.07
2019-03-15T08:02:46.025Z,45.63
2019-03-15T08:05:14.710Z,33.83
2019-03-15T08:07:45.657Z,36.33
2019-03-15T08:10:14.024Z,39.30
2019-03-15T08:12:42.566Z,35.67
2019-03-15T08:15:12.608Z,44.00
2019-03-15T08:17:41.202Z,42.03
2019-03-15T08:20:12.025Z,42.57
2019-03-15T08:22:40.622Z,37.13
2019-03-15T08:25:10.415Z,37.53
2019-03-15T08:27:38.893Z,40.23
2019-03-15T08:30:18.605Z,40.37
2019-03-15T08:32:47.132Z,42.80
2019-03-15T08:35:15.770Z,45.97
2019-03-15T08:37:44.211Z,49.97
2019-03-15T08:40:13.735Z,43.60
2019-03-15T08:42:42.345Z,45.40
2019-03-15T08:45:13.279Z,40.57
2019-03-15T08:47:41.716Z,40.10
2019-03-15T08:50:15.605Z,46.30
2019-03-15T08:52:44.597Z,50.90
2019-03-15T08:55:13.883Z,36.87
2019-03-15T08:57:44.330Z,55.83
2019-03-15T09:00:15.026Z,45.33
2019-03-15T09:02:43.634Z,48.63
2019-03-15T09:05:13.356Z,44.23
2019-03-15T09:07:42.027Z,53.60
2019-03-15T09:10:22.674Z,42.73
2019-03-15T09:12:46.079Z,41.33
2019-03-15T09:15:14.643Z,47.00
2019-03-15T09:17:43.434Z,43.27
2019-03-15T09:20:13.153Z,34.17
2019-03-15T09:22:41.715Z,40.53
2019-03-15T09:25:19.175Z,42.13
2019-03-15T09:27:45.237Z,43.57
2019-03-15T09:30:23.284Z,47.93
2019-03-15T09:32:46.601Z,38.13
2019-03-15T09:35:15.285Z,36.53
2019-03-15T09:37:47.084Z,37.33
2019-03-15T09:40:15.247Z,44.87
2019-03-15T09:42:43.873Z,37.87
2019-03-15T09:45:19.301Z,37.63
2019-03-15T09:47:48.022Z,35.97
2019-03-15T09:50:26.463Z,49.47
2019-03-15T09:52:47.451Z,46.57
2019-03-15T09:55:16.116Z,39.27
2019-03-15T09:57:44.996Z,35.77
2019-03-15T10:00:20.338Z,29.47
2019-03-15T10:02:48.929Z,31.73
2019-03-15T10:05:17.511Z,41.50
2019-03-15T10:07:46.329Z,26.50
2019-03-15T10:10:18.890Z,28.20
2019-03-15T10:12:47.576Z,35.07
2019-03-15T10:15:17.027Z,29.83
2019-03-15T10:17:45.754Z,27.03
2019-03-15T10:20:14.740Z,27.37
2019-03-15T10:22:43.325Z,32.33
2019-03-15T10:25:13.325Z,24.40
2019-03-15T10:27:42.023Z,23.47
2019-03-15T10:30:18.509Z,22.80
2019-03-15T10:32:47.174Z,26.03
2019-03-15T10:35:15.970Z,23.00
2019-03-15T10:37:44.527Z,22.00
2019-03-15T10:40:21.115Z,25.80
2019-03-15T10:42:49.696Z,22.67
2019-03-15T10:45:18.275Z,31.33
2019-03-15T10:47:46.730Z,25.10
2019-03-15T10:50:20.153Z,14.30
2019-03-15T10:52:48.937Z,16.10
2019-03-15T10:55:20.526Z,17.57
2019-03-15T10:57:48.020Z,28.50
2019-03-15T11:00:20.419Z,13.93
2019-03-15T11:02:49.207Z,17.20
2019-03-15T11:05:17.892Z,18.00
2019-03-15T11:07:46.575Z,17.73
2019-03-15T11:10:15.164Z,16.70
2019-03-15T11:12:43.743Z,17.20
2019-03-15T11:15:16.612Z,17.53
2019-03-15T11:17:45.213Z,19.30
2019-03-15T11:20:14.093Z,20.00
2019-03-15T11:22:42.791Z,17.13
2019-03-15T11:25:12.387Z,18.67
2019-03-15T11:27:40.973Z,15.17
2019-03-15T11:30:13.596Z,16.13
2019-03-15T11:32:42.336Z,20.23
2019-03-15T11:35:11.505Z,12.43
2019-03-15T11:37:40.122Z,17.00
2019-03-15T11:40:14.060Z,11.97
2019-03-15T11:42:41.884Z,14.43
2019-03-15T11:45:11.146Z,15.47
2019-03-15T11:47:50.711Z,15.77
2019-03-15T11:50:18.696Z,15.70
2019-03-15T11:52:47.377Z,20.27
2019-03-15T11:55:16.158Z,21.03
2019-03-15T11:57:44.849Z,19.40
2019-03-15T12:00:17.029Z,23.30
2019-03-15T12:02:45.679Z,14.47
2019-03-15T12:05:14.688Z,16.33
2019-03-15T12:07:43.375Z,12.30
2019-03-15T12:10:13.094Z,19.60
2019-03-15T12:12:41.652Z,19.07
2019-03-15T12:15:15.475Z,13.50
2019-03-15T12:17:44.149Z,14.83
2019-03-15T12:20:13.143Z,23.30
2019-03-15T12:22:41.828Z,12.53
2019-03-15T12:25:11.018Z,17.60
2019-03-15T12:27:39.919Z,20.37
2019-03-15T12:30:16.484Z,15.23
2019-03-15T12:32:45.282Z,18.63
2019-03-15T12:35:14.648Z,18.70
2019-03-15T12:37:43.390Z,17.80
2019-03-15T12:40:14.125Z,16.77
2019-03-15T12:42:42.890Z,16.23
2019-03-15T12:45:12.239Z,16.70
2019-03-15T12:47:40.868Z,24.63
2019-03-15T12:50:11.792Z,20.07
2019-03-15T12:52:47.700Z,18.53
2019-03-15T12:55:14.388Z,18.93
2019-03-15T12:57:43.178Z,25.80
2019-03-15T13:00:18.561Z,16.73
2019-03-15T13:02:47.305Z,23.97
2019-03-15T13:05:16.096Z,22.13
2019-03-15T13:07:44.784Z,17.17
2019-03-15T13:10:16.634Z,30.00
2019-03-15T13:12:45.443Z,22.37
2019-03-15T13:15:15.152Z,23.10
2019-03-15T13:17:43.710Z,22.17
2019-03-15T13:20:17.074Z,22.07
2019-03-15T13:22:45.796Z,17.97
2019-03-15T13:25:14.469Z,25.87
2019-03-15T13:27:43.101Z,22.67
2019-03-15T13:30:13.801Z,25.40
2019-03-15T13:32:42.315Z,20.50
2019-03-15T13:35:10.875Z,19.77
2019-03-15T13:37:42.435Z,20.57
2019-03-15T13:40:20.302Z,22.60
2019-03-15T13:42:49.090Z,27.57
2019-03-15T13:45:18.000Z,25.17
2019-03-15T13:47:46.873Z,22.00
2019-03-15T13:50:19.440Z,30.27
2019-03-15T13:52:48.134Z,33.20
2019-03-15T13:55:16.700Z,24.67
2019-03-15T13:57:45.423Z,32.47
2019-03-15T14:00:18.266Z,27.80
2019-03-15T14:02:46.780Z,26.10
2019-03-15T14:05:15.344Z,25.00
2019-03-15T14:07:44.026Z,29.33
2019-03-15T14:10:13.821Z,31.63
2019-03-15T14:12:42.604Z,23.63
2019-03-15T14:15:12.739Z,30.77
2019-03-15T14:17:41.321Z,23.33
2019-03-15T14:20:11.338Z,19.93
2019-03-15T14:22:40.024Z,27.40
2019-03-15T14:25:13.607Z,21.30
2019-03-15T14:27:42.309Z,26.33
2019-03-15T14:30:12.651Z,28.17
2019-03-15T14:32:41.222Z,28.43
2019-03-15T14:35:10.511Z,16.40
2019-03-15T14:37:39.223Z,19.67
2019-03-15T14:40:12.267Z,24.03
2019-03-15T14:42:41.104Z,26.47
2019-03-15T14:45:12.623Z,23.20
2019-03-15T14:47:41.394Z,26.97
2019-03-15T14:50:13.887Z,33.33
2019-03-15T14:52:42.576Z,20.90
2019-03-15T14:55:13.821Z,24.40
2019-03-15T14:57:52.217Z,19.07
2019-03-15T15:00:17.132Z,28.77
2019-03-15T15:02:45.707Z,23.97
2019-03-15T15:05:14.387Z,27.30
2019-03-15T15:07:43.052Z,26.97
2019-03-15T15:10:12.930Z,30.27
2019-03-15T15:12:41.672Z,24.77
2019-03-15T15:15:12.813Z,26.87
2019-03-15T15:17:41.606Z,26.73
2019-03-15T15:20:12.337Z,25.93
2019-03-15T15:22:42.658Z,19.27
2019-03-15T15:25:12.268Z,21.00
2019-03-15T15:27:40.846Z,24.37
2019-03-15T15:30:14.036Z,20.63
2019-03-15T15:32:42.925Z,18.47
2019-03-15T15:35:12.332Z,16.53
2019-03-15T15:37:40.968Z,14.20
2019-03-15T15:40:13.868Z,21.83
2019-03-15T15:42:42.463Z,16.00
2019-03-15T15:45:11.913Z,17.70
2019-03-15T15:47:40.458Z,16.17
2019-03-15T15:50:10.274Z,15.37
2019-03-15T15:52:38.956Z,15.07
2019-03-15T15:55:10.238Z,14.50
2019-03-15T15:57:38.987Z,22.80
2019-03-15T16:00:13.814Z,16.27
2019-03-15T16:02:42.997Z,16.83
2019-03-15T16:05:13.344Z,19.73
2019-03-15T16:07:42.124Z,11.27
2019-03-15T16:10:17.847Z,14.17
2019-03-15T16:12:45.832Z,16.43
2019-03-15T16:15:15.846Z,14.70
2019-03-15T16:17:45.647Z,20.30
2019-03-15T16:20:14.868Z,12.07
2019-03-15T16:22:43.550Z,16.73
2019-03-15T16:25:12.557Z,18.07
2019-03-15T16:27:41.362Z,15.47
2019-03-15T16:30:13.171Z,15.70
2019-03-15T16:32:41.874Z,19.37
2019-03-15T16:35:11.993Z,17.37
2019-03-15T16:37:40.691Z,17.00
2019-03-15T16:40:13.430Z,32.43
2019-03-15T16:42:42.017Z,20.67
2019-03-15T16:45:19.106Z,29.93
2019-03-15T16:47:47.901Z,26.50
2019-03-15T16:50:16.689Z,30.27
2019-03-15T16:52:45.590Z,32.27
2019-03-15T16:55:14.194Z,24.33
2019-03-15T16:57:42.954Z,21.40
2019-03-15T17:00:13.680Z,29.13
2019-03-15T17:02:42.474Z,31.30
2019-03-15T17:05:12.236Z,28.70
2019-03-15T17:07:40.964Z,30.57
2019-03-15T17:10:16.961Z,24.67
2019-03-15T17:12:45.921Z,24.50
2019-03-15T17:15:19.384Z,34.13
2019-03-15T17:17:48.316Z,29.93
2019-03-15T17:20:16.899Z,24.03
2019-03-15T17:22:45.372Z,31.93
2019-03-15T17:25:14.051Z,33.83
2019-03-15T17:27:42.834Z,23.70
2019-03-15T17:30:16.143Z,34.97
2019-03-15T17:32:44.808Z,25.70
2019-03-15T17:35:20.398Z,24.67
2019-03-15T17:37:48.978Z,26.80
2019-03-15T17:40:21.509Z,25.40
2019-03-15T17:42:50.276Z,26.40
2019-03-15T17:45:18.981Z,33.10
2019-03-15T17:47:47.673Z,30.07
2019-03-15T17:50:21.085Z,29.83
2019-03-15T17:52:49.778Z,32.27
2019-03-15T17:55:18.444Z,29.10
2019-03-15T17:57:46.922Z,21.87
2019-03-15T18:00:24.888Z,30.77
2019-03-15T18:02:53.413Z,25.33
2019-03-15T18:05:21.965Z,34.73
2019-03-15T18:07:50.585Z,26.47
2019-03-15T18:10:19.254Z,22.30
2019-03-15T18:12:47.835Z,36.50
2019-03-15T18:15:16.838Z,24.87
2019-03-15T18:17:45.781Z,25.37
2019-03-15T18:20:14.396Z,27.83
2019-03-15T18:22:43.098Z,28.60
2019-03-15T18:25:11.623Z,32.33
2019-03-15T18:27:40.237Z,27.53
2019-03-15T18:30:13.940Z,29.57
2019-03-15T18:32:42.623Z,33.80
2019-03-15T18:35:11.513Z,29.37
2019-03-15T18:37:40.096Z,29.00
2019-03-15T18:40:19.648Z,28.20
2019-03-15T18:42:48.318Z,30.13
2019-03-15T18:45:17.921Z,34.37
2019-03-15T18:47:46.727Z,33.33
2019-03-15T18:50:17.813Z,23.37
2019-03-15T18:52:46.436Z,39.90
2019-03-15T18:55:15.124Z,32.63
2019-03-15T18:57:43.913Z,36.53
2019-03-15T19:00:23.551Z,34.27
2019-03-15T19:02:52.236Z,33.40
2019-03-15T19:05:20.922Z,38.63
2019-03-15T19:07:49.604Z,36.97
2019-03-15T19:10:18.288Z,32.80
2019-03-15T19:12:46.977Z,29.30
2019-03-15T19:15:19.518Z,25.23
2019-03-15T19:17:48.242Z,36.93
2019-03-15T19:20:17.332Z,30.17
2019-03-15T19:22:46.015Z,34.13
2019-03-15T19:25:15.419Z,28.60
2019-03-15T19:27:44.089Z,28.43
2019-03-15T19:30:18.009Z,38.53
2019-03-15T19:32:46.590Z,36.80
2019-03-15T19:35:15.290Z,27.90
2019-03-15T19:37:43.813Z,30.73
2019-03-15T19:40:19.468Z,32.07
2019-03-15T19:42:48.192Z,30.03
2019-03-15T19:45:17.499Z,23.03
2019-03-15T19:47:46.296Z,39.40
2019-03-15T19:50:17.182Z,33.97
2019-03-15T19:52:45.896Z,34.83
2019-03-15T19:55:15.394Z,35.83
2019-03-15T19:57:43.972Z,30.57
2019-03-15T20:00:15.341Z,41.10
2019-03-15T20:02:44.118Z,41.70
2019-03-15T20:05:12.913Z,42.53
2019-03-15T20:07:41.615Z,28.07
2019-03-15T20:10:17.410Z,34.03
2019-03-15T20:12:46.237Z,32.33
2019-03-15T20:15:15.819Z,35.67
2019-03-15T20:17:44.520Z,38.13
2019-03-15T20:20:17.081Z,38.83
2019-03-15T20:22:45.675Z,35.27
2019-03-15T20:25:15.284Z,26.33
2019-03-15T20:27:43.862Z,39.77
2019-03-15T20:30:21.467Z,41.17
2019-03-15T20:32:48.606Z,43.43
2019-03-15T20:35:17.325Z,30.43
2019-03-15T20:37:46.095Z,33.57
2019-03-15T20:40:14.965Z,31.50
2019-03-15T20:42:43.777Z,31.43
2019-03-15T20:45:20.400Z,31.57
2019-03-15T20:47:49.009Z,41.07
2019-03-15T20:50:17.695Z,27.60
2019-03-15T20:52:46.379Z,30.50
2019-03-15T20:55:15.169Z,39.13
2019-03-15T20:57:44.369Z,38.17
2019-03-15T21:00:34.419Z,31.53
2019-03-15T21:02:50.831Z,40.90
2019-03-15T21:05:19.525Z,38.87
2019-03-15T21:07:48.314Z,33.53
2019-03-15T21:10:18.741Z,36.20
2019-03-15T21:12:47.637Z,35.33
2019-03-15T21:15:17.259Z,35.63
2019-03-15T21:17:46.024Z,27.67
2019-03-15T21:20:16.861Z,37.53
2019-03-15T21:22:45.534Z,39.80
2019-03-15T21:25:14.326Z,36.43
2019-03-15T21:27:52.963Z,29.90
2019-03-15T21:30:21.327Z,28.63
2019-03-15T21:32:50.010Z,37.27
2019-03-15T21:35:18.702Z,33.63
2019-03-15T21:37:47.289Z,31.80
2019-03-15T21:40:17.321Z,38.47
2019-03-15T21:42:45.978Z,32.57
2019-03-15T21:45:14.659Z,32.53
2019-03-15T21:47:43.348Z,26.70
2019-03-15T21:50:14.057Z,27.07
2019-03-15T21:52:42.659Z,30.50
2019-03-15T21:55:11.550Z,28.53
2019-03-15T21:57:40.131Z,27.37
2019-03-15T22:00:12.097Z,20.13
2019-03-15T22:02:40.810Z,32.40
2019-03-15T22:05:09.773Z,29.47
2019-03-15T22:07:38.458Z,32.70
2019-03-15T22:10:10.413Z,29.30
2019-03-15T22:12:38.995Z,31.50
2019-03-15T22:15:09.466Z,31.00
2019-03-15T22:17:38.360Z,23.57
2019-03-15T22:20:12.015Z,25.53
2019-03-15T22:22:40.700Z,25.70
2019-03-15T22:25:09.680Z,20.90
2019-03-15T22:27:38.494Z,19.40
2019-03-15T22:30:15.985Z,21.93
2019-03-15T22:32:44.775Z,21.30
2019-03-15T22:35:13.657Z,16.33
2019-03-15T22:37:42.351Z,14.00
2019-03-15T22:40:12.387Z,17.27
2019-03-15T22:42:41.030Z,16.57
2019-03-15T22:45:14.122Z,8.83
2019-03-15T22:47:42.910Z,12.00
2019-03-15T22:50:12.321Z,9.40
2019-03-15T22:52:41.098Z,7.27
2019-03-15T22:55:10.407Z,9.87
2019-03-15T22:57:38.974Z,7.17
2019-03-15T23:00:18.411Z,7.77
2019-03-15T23:02:47.122Z,7.73
2019-03-15T23:05:15.678Z,8.87
2019-03-15T23:07:44.347Z,10.07
2019-03-15T23:10:13.237Z,9.13
2019-03-15T23:12:42.041Z,10.80
2019-03-15T23:15:11.550Z,9.70
2019-03-15T23:17:40.137Z,6.43
2019-03-15T23:20:11.230Z,11.87
2019-03-15T23:22:39.955Z,6.00
2019-03-15T23:25:08.786Z,13.97
2019-03-15T23:27:37.532Z,8.77
2019-03-15T23:30:09.395Z,9.83
2019-03-15T23:32:38.086Z,8.73
2019-03-15T23:35:06.760Z,11.93
2019-03-15T23:37:35.447Z,8.60
2019-03-15T23:40:05.309Z,12.80
2019-03-15T23:42:33.988Z,10.10
2019-03-15T23:45:02.616Z,7.50
2019-03-15T23:47:31.199Z,8.17
2019-03-15T23:50:00.014Z,11.03
2019-03-15T23:52:28.799Z,8.40
2019-03-15T23:54:57.456Z,11.03
2019-03-15T23:57:26.037Z,12.53
2019-03-15T23:59:54.537Z,6.87
